Time;durP1;ratioP1;P1;durP2;ratioP2;P2;SDS_P1;SDS_P2;PMS_P1;PMS_P2;Temp;Humidity;BMP_temperature;BMP_pressure;BME280_temperature;BME280_humidity;BME280_pressure;Samples;Min_cycle;Max_cycle;Signal;HPM_P1;HPM_P2
2022/08/01 00:01:18;;;;;;;2.33;1.90;;;;;;;;;;6189577;23;20196;-83
2022/08/01 00:03:45;;;;;;;2.20;2.10;;;;;;;;;;6188101;23;20173;-84
2022/08/01 00:06:13;;;;;;;2.35;2.20;;;;;;;;;;6189219;23;20177;-84
2022/08/01 00:08:40;;;;;;;2.25;2.08;;;;;;;;;;6188890;23;20196;-84
2022/08/01 00:11:10;;;;;;;2.40;2.20;;;;;;;;;;6189080;23;20194;-83
2022/08/01 00:13:37;;;;;;;2.15;2.05;;;;;;;;;;6188515;23;20174;-84
2022/08/01 00:16:06;;;;;;;2.00;1.83;;;;;;;;;;6189829;23;20174;-84
2022/08/01 00:18:34;;;;;;;2.10;1.92;;;;;;;;;;6189875;23;20217;-84
2022/08/01 00:21:01;;;;;;;2.70;2.00;;;;;;;;;;6187243;23;20174;-83
2022/08/01 00:23:28;;;;;;;2.70;2.25;;;;;;;;;;6188033;23;20204;-83
2022/08/01 00:25:56;;;;;;;2.38;2.00;;;;;;;;;;6187518;23;20205;-83
2022/08/01 00:28:23;;;;;;;4.72;2.30;;;;;;;;;;6189291;23;20194;-83
2022/08/01 00:30:50;;;;;;;2.10;2.00;;;;;;;;;;6189763;23;20186;-82
2022/08/01 00:33:19;;;;;;;2.22;2.03;;;;;;;;;;6190392;23;20240;-84
2022/08/01 00:35:46;;;;;;;2.20;2.05;;;;;;;;;;6190291;23;20181;-83
2022/08/01 00:38:13;;;;;;;2.20;2.10;;;;;;;;;;6190326;23;20197;-82
2022/08/01 00:40:41;;;;;;;2.60;2.22;;;;;;;;;;6189746;23;20169;-83
2022/08/01 00:43:08;;;;;;;2.70;2.50;;;;;;;;;;6189329;23;20181;-84
2022/08/01 00:45:35;;;;;;;2.13;2.03;;;;;;;;;;6189194;23;20174;-83
2022/08/01 00:48:03;;;;;;;2.50;2.30;;;;;;;;;;6187791;23;20194;-83
2022/08/01 00:50:32;;;;;;;2.40;2.20;;;;;;;;;;6188522;23;20190;-83
2022/08/01 00:53:00;;;;;;;2.40;2.30;;;;;;;;;;6187570;23;20193;-83
2022/08/01 00:55:28;;;;;;;2.60;2.40;;;;;;;;;;6189026;23;20232;-83
2022/08/01 00:57:56;;;;;;;2.40;2.20;;;;;;;;;;6187198;23;20198;-83
2022/08/01 01:00:23;;;;;;;2.30;2.10;;;;;;;;;;6188875;23;20186;-83
2022/08/01 01:02:50;;;;;;;2.42;2.22;;;;;;;;;;6188482;23;20220;-83
2022/08/01 01:05:17;;;;;;;2.67;2.47;;;;;;;;;;6189871;23;20197;-83
2022/08/01 01:07:49;;;;;;;2.50;2.30;;;;;;;;;;6187527;23;20210;-84
2022/08/01 01:10:19;;;;;;;2.30;2.13;;;;;;;;;;6186790;23;20222;-83
2022/08/01 01:12:48;;;;;;;2.20;2.10;;;;;;;;;;6187328;23;20232;-83
2022/08/01 01:15:18;;;;;;;2.80;2.60;;;;;;;;;;6187786;23;20174;-83
2022/08/01 01:17:48;;;;;;;2.28;2.15;;;;;;;;;;6187572;23;20194;-83
2022/08/01 01:20:16;;;;;;;2.50;2.30;;;;;;;;;;6185927;23;20608;-83
2022/08/01 01:22:52;;;;;;;2.65;2.45;;;;;;;;;;6185150;23;20173;-83
2022/08/01 01:25:39;;;;;;;2.28;2.17;;;;;;;;;;6187389;23;20166;-83
2022/08/01 01:28:10;;;;;;;3.03;2.60;;;;;;;;;;6186606;23;20193;-83
2022/08/01 01:30:40;;;;;;;2.35;2.22;;;;;;;;;;6186864;23;20189;-85
2022/08/01 01:33:09;;;;;;;4.60;2.67;;;;;;;;;;6184942;23;20180;-83
2022/08/01 01:35:38;;;;;;;5.07;2.30;;;;;;;;;;6186027;23;20243;-83
2022/08/01 01:38:10;;;;;;;2.72;2.53;;;;;;;;;;6186778;23;20194;-85
2022/08/01 01:40:38;;;;;;;2.78;2.25;;;;;;;;;;6184574;23;20228;-85
2022/08/01 01:43:11;;;;;;;2.85;2.40;;;;;;;;;;6184520;23;20181;-85
2022/08/01 01:45:40;;;;;;;2.58;2.38;;;;;;;;;;6187133;23;20174;-84
2022/08/01 01:48:08;;;;;;;3.00;2.35;;;;;;;;;;6186709;23;20218;-85
2022/08/01 01:50:41;;;;;;;2.80;2.50;;;;;;;;;;6185475;23;20190;-84
2022/08/01 01:53:11;;;;;;;2.70;2.40;;;;;;;;;;6187455;23;20178;-85
2022/08/01 01:55:45;;;;;;;2.75;2.55;;;;;;;;;;6186117;23;20166;-84
2022/08/01 01:58:27;;;;;;;3.60;2.47;;;;;;;;;;6185487;23;20228;-84
2022/08/01 02:01:10;;;;;;;3.00;2.70;;;;;;;;;;6186550;23;20173;-84
2022/08/01 02:03:55;;;;;;;2.55;2.40;;;;;;;;;;6188380;23;20166;-84
2022/08/01 02:06:32;;;;;;;2.70;2.50;;;;;;;;;;6188711;23;20232;-85
2022/08/01 02:09:24;;;;;;;2.60;2.40;;;;;;;;;;6188654;23;20190;-84
2022/08/01 02:17:49;;;;;;;3.40;2.90;;;;;;;;;;6180379;23;20273;-85
2022/08/01 02:20:28;;;;;;;3.10;2.85;;;;;;;;;;6189056;23;20199;-86
2022/08/01 02:23:01;;;;;;;2.90;2.70;;;;;;;;;;6188469;23;20175;-84
2022/08/01 02:25:31;;;;;;;2.72;2.53;;;;;;;;;;6189028;23;20221;-86
2022/08/01 02:28:06;;;;;;;4.28;2.97;;;;;;;;;;6188554;23;20194;-85
2022/08/01 02:30:35;;;;;;;3.20;2.90;;;;;;;;;;6188300;23;20172;-85
2022/08/01 02:35:51;;;;;;;2.80;2.60;;;;;;;;;;6185689;23;20634;-85
2022/08/01 02:38:20;;;;;;;2.63;2.42;;;;;;;;;;6187259;23;20700;-85
2022/08/01 02:40:49;;;;;;;3.00;2.70;;;;;;;;;;6187527;23;20181;-85
2022/08/01 02:43:19;;;;;;;3.05;2.80;;;;;;;;;;6190199;23;20170;-85
2022/08/01 02:45:48;;;;;;;3.38;2.78;;;;;;;;;;6191538;23;20167;-85
2022/08/01 02:48:18;;;;;;;2.90;2.50;;;;;;;;;;6191605;23;20273;-85
2022/08/01 02:50:49;;;;;;;3.00;2.80;;;;;;;;;;6190823;23;20197;-85
2022/08/01 02:53:18;;;;;;;3.15;2.65;;;;;;;;;;6190013;23;20174;-85
2022/08/01 02:55:47;;;;;;;2.70;2.50;;;;;;;;;;6188987;23;20178;-85
2022/08/01 02:58:15;;;;;;;2.65;2.45;;;;;;;;;;6187965;23;20209;-84
2022/08/01 03:00:44;;;;;;;2.88;2.67;;;;;;;;;;6188685;23;20236;-85
2022/08/01 03:03:12;;;;;;;2.95;2.75;;;;;;;;;;6189046;23;20174;-84
2022/08/01 03:05:44;;;;;;;3.22;2.92;;;;;;;;;;6188522;23;20175;-85
2022/08/01 03:08:13;;;;;;;2.88;2.53;;;;;;;;;;6188737;23;20198;-85
2022/08/01 03:10:48;;;;;;;3.20;2.90;;;;;;;;;;6188090;23;20170;-85
2022/08/01 03:13:17;;;;;;;2.90;2.70;;;;;;;;;;6188166;23;20161;-85
2022/08/01 03:15:45;;;;;;;2.90;2.70;;;;;;;;;;6189189;23;20201;-85
2022/08/01 03:18:15;;;;;;;3.05;2.78;;;;;;;;;;6188301;23;20198;-84
2022/08/01 03:20:47;;;;;;;4.43;2.58;;;;;;;;;;6187935;23;20166;-85
2022/08/01 03:23:17;;;;;;;2.80;2.55;;;;;;;;;;6188265;23;20174;-86
2022/08/01 03:25:47;;;;;;;3.05;2.85;;;;;;;;;;6187974;23;20170;-84
2022/08/01 03:28:15;;;;;;;2.95;2.70;;;;;;;;;;6188703;23;20736;-85
2022/08/01 03:30:57;;;;;;;2.70;2.50;;;;;;;;;;6188815;23;20173;-85
2022/08/01 03:33:29;;;;;;;2.90;2.70;;;;;;;;;;6189208;23;20166;-86
2022/08/01 03:36:05;;;;;;;3.00;2.72;;;;;;;;;;6187757;23;20174;-85
2022/08/01 03:38:36;;;;;;;2.90;2.70;;;;;;;;;;6187879;23;20657;-86
2022/08/01 03:41:13;;;;;;;3.17;2.92;;;;;;;;;;6187342;23;20166;-85
2022/08/01 03:43:43;;;;;;;2.92;2.67;;;;;;;;;;6188041;23;20170;-85
2022/08/01 03:46:15;;;;;;;2.92;2.60;;;;;;;;;;6186936;23;20178;-85
2022/08/01 03:48:44;;;;;;;2.80;2.60;;;;;;;;;;6187790;23;20194;-85
2022/08/01 03:51:16;;;;;;;2.95;2.58;;;;;;;;;;6186773;23;20194;-85
2022/08/01 03:53:44;;;;;;;2.83;2.63;;;;;;;;;;6187990;23;20261;-86
2022/08/01 03:56:13;;;;;;;2.88;2.67;;;;;;;;;;6187630;23;20177;-85
2022/08/01 03:58:41;;;;;;;3.00;2.70;;;;;;;;;;6187283;23;20208;-85
2022/08/01 04:01:12;;;;;;;2.72;2.53;;;;;;;;;;6187917;23;20170;-85
2022/08/01 04:03:43;;;;;;;2.63;2.35;;;;;;;;;;6187809;23;20169;-86
2022/08/01 04:06:17;;;;;;;2.88;2.67;;;;;;;;;;6188266;23;20169;-85
2022/08/01 04:08:55;;;;;;;3.00;2.70;;;;;;;;;;6187655;23;20196;-85
2022/08/01 04:11:25;;;;;;;2.85;2.40;;;;;;;;;;6187286;23;20190;-85
2022/08/01 04:13:58;;;;;;;3.28;2.97;;;;;;;;;;6187396;23;20181;-85
2022/08/01 04:19:50;;;;;;;2.75;2.50;;;;;;;;;;6172001;23;20170;-85
2022/08/01 04:22:19;;;;;;;2.63;2.42;;;;;;;;;;6188231;23;20181;-85
2022/08/01 04:24:50;;;;;;;2.47;2.33;;;;;;;;;;6187272;23;20173;-85
2022/08/01 04:27:22;;;;;;;2.47;2.28;;;;;;;;;;6187366;23;20166;-85
2022/08/01 04:29:58;;;;;;;2.78;2.58;;;;;;;;;;6188383;23;20516;-85
2022/08/01 04:32:31;;;;;;;3.05;2.55;;;;;;;;;;6187980;23;20194;-85
2022/08/01 04:35:00;;;;;;;2.50;2.30;;;;;;;;;;6189146;23;20185;-84
2022/08/01 04:37:32;;;;;;;2.88;2.58;;;;;;;;;;6188009;23;20189;-85
2022/08/01 04:40:14;;;;;;;2.67;2.47;;;;;;;;;;6188018;23;20174;-85
2022/08/01 04:42:41;;;;;;;2.78;2.25;;;;;;;;;;6187477;23;20173;-85
2022/08/01 04:45:14;;;;;;;2.60;2.40;;;;;;;;;;6187539;23;20174;-85
2022/08/01 04:47:42;;;;;;;2.90;2.70;;;;;;;;;;6186120;23;20190;-86
2022/08/01 04:50:28;;;;;;;;;;;;;;;;;;;;;
2022/08/01 04:52:58;;;;;;;2.63;2.40;;;;;;;;;;6186948;23;20273;-85
2022/08/01 04:55:27;;;;;;;2.40;2.20;;;;;;;;;;6186569;23;20224;-85
2022/08/01 04:57:55;;;;;;;2.78;2.55;;;;;;;;;;6187232;23;20201;-85
2022/08/01 05:00:22;;;;;;;2.63;2.40;;;;;;;;;;6187770;23;20174;-86
2022/08/01 05:02:50;;;;;;;3.38;2.65;;;;;;;;;;6188584;23;20510;-84
2022/08/01 05:05:17;;;;;;;2.72;2.53;;;;;;;;;;6187755;23;20174;-85
2022/08/01 05:07:45;;;;;;;2.28;2.10;;;;;;;;;;6186895;23;20220;-85
2022/08/01 05:10:13;;;;;;;2.78;2.40;;;;;;;;;;6187761;23;20205;-86
2022/08/01 05:12:49;;;;;;;2.58;2.38;;;;;;;;;;6187829;23;20189;-86
2022/08/01 05:15:19;;;;;;;2.42;2.20;;;;;;;;;;6188589;23;20190;-85
2022/08/01 05:17:48;;;;;;;2.53;2.33;;;;;;;;;;6188032;23;20198;-86
2022/08/01 05:20:17;;;;;;;2.80;2.20;;;;;;;;;;6188694;23;20269;-86
2022/08/01 05:22:46;;;;;;;2.78;2.30;;;;;;;;;;6188440;23;20173;-85
2022/08/01 05:25:16;;;;;;;2.67;2.30;;;;;;;;;;6188647;23;20245;-85
2022/08/01 05:27:49;;;;;;;2.67;2.35;;;;;;;;;;6187800;23;20194;-85
2022/08/01 05:30:17;;;;;;;2.75;2.28;;;;;;;;;;6189494;23;20177;-85
2022/08/01 05:32:51;;;;;;;2.55;2.35;;;;;;;;;;6189327;23;20186;-85
2022/08/01 05:35:31;;;;;;;;;;;;;;;;;;;;;
2022/08/01 05:37:58;;;;;;;2.92;2.10;;;;;;;;;;6187725;23;20681;-85
2022/08/01 05:40:26;;;;;;;3.38;1.95;;;;;;;;;;6188530;23;20174;-85
2022/08/01 05:43:01;;;;;;;2.33;2.13;;;;;;;;;;6188991;23;20170;-84
2022/08/01 05:45:32;;;;;;;2.53;2.33;;;;;;;;;;6187663;23;20253;-85
2022/08/01 05:47:59;;;;;;;2.35;2.20;;;;;;;;;;6187518;23;20189;-84
2022/08/01 05:50:26;;;;;;;1.90;1.80;;;;;;;;;;6187047;23;20209;-85
2022/08/01 05:52:54;;;;;;;2.28;2.08;;;;;;;;;;6187275;23;20189;-85
2022/08/01 05:55:24;;;;;;;2.30;2.10;;;;;;;;;;6187251;23;20220;-84
2022/08/01 05:58:06;;;;;;;2.10;2.00;;;;;;;;;;6187086;23;20202;-87
2022/08/01 06:03:18;;;;;;;2.20;2.00;;;;;;;;;;6184570;23;20670;-89
2022/08/01 06:05:45;;;;;;;2.50;2.30;;;;;;;;;;6185251;23;20181;-88
2022/08/01 06:08:12;;;;;;;2.03;1.88;;;;;;;;;;6185725;23;20174;-89
2022/08/01 06:10:41;;;;;;;4.97;1.90;;;;;;;;;;6184213;23;20225;-88
2022/08/01 06:13:16;;;;;;;2.00;1.90;;;;;;;;;;6185571;23;20186;-88
2022/08/01 06:15:48;;;;;;;2.35;2.10;;;;;;;;;;6186342;23;20577;-89
2022/08/01 06:21:04;;;;;;;2.83;2.00;;;;;;;;;;6183827;23;20200;-88
2022/08/01 06:23:37;;;;;;;2.38;2.00;;;;;;;;;;6186298;23;20627;-88
2022/08/01 06:26:20;;;;;;;4.75;1.98;;;;;;;;;;6186021;23;20250;-88
2022/08/01 06:28:52;;;;;;;2.10;1.88;;;;;;;;;;6185735;23;20181;-88
2022/08/01 06:34:17;;;;;;;2.72;1.90;;;;;;;;;;6181466;23;20178;-87
2022/08/01 06:36:44;;;;;;;2.30;1.85;;;;;;;;;;6185401;23;20236;-88
2022/08/01 06:39:17;;;;;;;2.15;1.88;;;;;;;;;;6185619;23;20228;-88
2022/08/01 06:41:47;;;;;;;2.55;1.73;;;;;;;;;;6185606;23;20172;-88
2022/08/01 06:44:15;;;;;;;1.70;1.60;;;;;;;;;;6186319;23;20177;-89
2022/08/01 06:46:42;;;;;;;2.38;2.03;;;;;;;;;;6185137;23;20173;-89
2022/08/01 06:49:11;;;;;;;1.70;1.60;;;;;;;;;;6185811;23;20201;-88
2022/08/01 06:51:43;;;;;;;2.20;1.90;;;;;;;;;;6186581;23;20174;-88
2022/08/01 06:54:15;;;;;;;2.60;1.85;;;;;;;;;;6187733;23;20224;-88
2022/08/01 06:56:49;;;;;;;2.13;1.70;;;;;;;;;;6187012;23;20267;-88
2022/08/01 06:59:18;;;;;;;1.75;1.60;;;;;;;;;;6188104;23;20209;-88
2022/08/01 07:01:57;;;;;;;1.70;1.50;;;;;;;;;;6190252;23;20185;-88
2022/08/01 07:04:31;;;;;;;2.97;1.77;;;;;;;;;;6187514;23;20182;-88
2022/08/01 07:06:58;;;;;;;2.38;1.73;;;;;;;;;;6186994;23;20166;-89
2022/08/01 07:09:31;;;;;;;1.70;1.60;;;;;;;;;;6188094;23;20242;-86
2022/08/01 07:12:03;;;;;;;1.80;1.70;;;;;;;;;;6187542;23;20174;-86
2022/08/01 07:14:33;;;;;;;1.88;1.65;;;;;;;;;;6186481;23;20265;-87
2022/08/01 07:17:05;;;;;;;1.77;1.67;;;;;;;;;;6186964;23;20170;-85
2022/08/01 07:19:42;;;;;;;1.95;1.60;;;;;;;;;;6186978;23;20294;-85
2022/08/01 07:22:10;;;;;;;1.70;1.50;;;;;;;;;;6188059;23;20168;-85
2022/08/01 07:24:37;;;;;;;1.98;1.60;;;;;;;;;;6187782;23;20231;-85
2022/08/01 07:27:05;;;;;;;2.08;1.50;;;;;;;;;;6188349;23;20178;-85
2022/08/01 07:29:33;;;;;;;2.67;1.60;;;;;;;;;;6187792;23;20256;-85
2022/08/01 07:32:00;;;;;;;2.58;1.52;;;;;;;;;;6186967;23;20177;-85
2022/08/01 07:34:27;;;;;;;1.92;1.60;;;;;;;;;;6187042;23;20174;-85
2022/08/01 07:36:56;;;;;;;1.95;1.30;;;;;;;;;;6187095;23;20197;-84
2022/08/01 07:39:24;;;;;;;1.65;1.55;;;;;;;;;;6187961;23;20194;-85
2022/08/01 07:41:51;;;;;;;1.77;1.55;;;;;;;;;;6187187;23;20544;-84
2022/08/01 07:44:21;;;;;;;1.80;1.70;;;;;;;;;;6187869;23;20208;-86
2022/08/01 07:46:51;;;;;;;3.47;1.70;;;;;;;;;;6187966;23;20170;-86
2022/08/01 07:49:18;;;;;;;1.77;1.67;;;;;;;;;;6186689;23;20205;-85
2022/08/01 07:51:45;;;;;;;1.60;1.50;;;;;;;;;;6186445;23;20248;-85
2022/08/01 07:54:14;;;;;;;2.30;2.05;;;;;;;;;;6188912;23;20197;-85
2022/08/01 07:56:42;;;;;;;1.90;1.70;;;;;;;;;;6189629;23;20225;-85
2022/08/01 07:59:09;;;;;;;2.70;2.40;;;;;;;;;;6186433;23;20205;-86
2022/08/01 08:01:36;;;;;;;2.20;2.10;;;;;;;;;;6186470;23;20236;-85
2022/08/01 08:04:05;;;;;;;3.30;1.80;;;;;;;;;;6186494;23;20199;-85
2022/08/01 08:06:33;;;;;;;2.45;2.08;;;;;;;;;;6188003;23;20180;-86
2022/08/01 08:09:00;;;;;;;2.20;2.10;;;;;;;;;;6186507;23;20253;-87
2022/08/01 08:11:32;;;;;;;2.20;1.80;;;;;;;;;;6187045;23;20174;-86
2022/08/01 08:13:59;;;;;;;2.10;2.00;;;;;;;;;;6188928;23;20220;-86
2022/08/01 08:16:26;;;;;;;2.55;2.35;;;;;;;;;;6190228;23;20181;-85
2022/08/01 08:18:56;;;;;;;2.03;1.77;;;;;;;;;;6187536;23;20178;-85
2022/08/01 08:21:23;;;;;;;2.15;1.95;;;;;;;;;;6187937;23;20229;-86
2022/08/01 08:26:37;;;;;;;2.67;2.10;;;;;;;;;;6187251;23;20212;-86
2022/08/01 08:29:04;;;;;;;1.90;1.80;;;;;;;;;;6186930;23;20201;-85
2022/08/01 08:31:32;;;;;;;2.30;2.10;;;;;;;;;;6187224;23;20190;-87
2022/08/01 08:34:00;;;;;;;2.30;2.10;;;;;;;;;;6187567;23;20273;-86
2022/08/01 08:36:28;;;;;;;2.38;2.08;;;;;;;;;;6187836;23;20170;-86
2022/08/01 08:38:55;;;;;;;2.15;2.03;;;;;;;;;;6189090;23;20173;-86
2022/08/01 08:41:23;;;;;;;2.30;2.10;;;;;;;;;;6205369;23;20174;-87
2022/08/01 08:43:52;;;;;;;2.30;2.10;;;;;;;;;;6209783;23;20177;-87
2022/08/01 08:46:20;;;;;;;1.90;1.80;;;;;;;;;;6210117;23;20197;-86
2022/08/01 08:48:47;;;;;;;2.72;2.53;;;;;;;;;;6207523;23;20205;-86
2022/08/01 08:51:16;;;;;;;3.10;2.90;;;;;;;;;;6208415;23;20198;-87
2022/08/01 08:53:44;;;;;;;2.88;2.67;;;;;;;;;;6209486;23;20189;-87
2022/08/01 08:56:15;;;;;;;2.50;2.30;;;;;;;;;;6210800;23;20232;-89
2022/08/01 08:58:44;;;;;;;3.20;2.90;;;;;;;;;;6196153;23;20221;-86
2022/08/01 09:01:22;;;;;;;3.53;3.22;;;;;;;;;;6187101;23;20213;-85
2022/08/01 09:03:49;;;;;;;3.33;3.03;;;;;;;;;;6187407;23;20177;-87
2022/08/01 09:06:19;;;;;;;3.53;3.22;;;;;;;;;;6186686;23;20240;-86
2022/08/01 09:08:47;;;;;;;2.97;2.67;;;;;;;;;;6190511;23;20198;-86
2022/08/01 09:11:14;;;;;;;3.28;2.67;;;;;;;;;;6194753;23;20197;-86
2022/08/01 09:13:42;;;;;;;2.67;2.47;;;;;;;;;;6184651;23;20192;-86
2022/08/01 09:16:11;;;;;;;2.58;2.38;;;;;;;;;;6185328;23;20178;-86
2022/08/01 09:18:43;;;;;;;3.00;2.70;;;;;;;;;;6186131;23;20182;-85
2022/08/01 09:21:16;;;;;;;2.70;2.50;;;;;;;;;;6185071;23;20198;-86
2022/08/01 09:23:45;;;;;;;3.03;2.47;;;;;;;;;;6184182;23;20237;-86
2022/08/01 09:26:12;;;;;;;2.67;2.47;;;;;;;;;;6184522;23;20228;-86
2022/08/01 09:28:40;;;;;;;3.28;2.70;;;;;;;;;;6185001;23;20174;-87
2022/08/01 09:31:08;;;;;;;3.45;3.15;;;;;;;;;;6186488;23;20190;-86
2022/08/01 09:33:51;;;;;;;4.30;2.67;;;;;;;;;;6184868;23;20240;-86
2022/08/01 09:36:18;;;;;;;2.95;2.75;;;;;;;;;;6184917;23;20169;-86
2022/08/01 09:38:47;;;;;;;2.97;2.78;;;;;;;;;;6185158;23;20170;-86
2022/08/01 09:41:15;;;;;;;2.95;2.75;;;;;;;;;;6184980;23;20194;-86
2022/08/01 09:43:43;;;;;;;3.00;2.70;;;;;;;;;;6185154;23;20215;-86
2022/08/01 09:46:13;;;;;;;3.15;2.88;;;;;;;;;;6185002;23;20170;-88
2022/08/01 09:48:42;;;;;;;3.38;3.13;;;;;;;;;;6185474;23;20245;-88
2022/08/01 09:51:31;;;;;;;3.70;3.40;;;;;;;;;;6186055;23;20194;-87
2022/08/01 09:54:04;;;;;;;3.30;3.10;;;;;;;;;;6175361;23;20190;-86
2022/08/01 09:57:01;;;;;;;3.42;3.13;;;;;;;;;;6185612;23;20200;-87
2022/08/01 09:59:40;;;;;;;3.55;3.25;;;;;;;;;;6185419;23;20194;-87
2022/08/01 10:02:39;;;;;;;3.65;3.35;;;;;;;;;;6184778;23;20224;-88
2022/08/01 10:05:19;;;;;;;4.53;3.40;;;;;;;;;;6185982;23;20167;-88
2022/08/01 10:07:59;;;;;;;3.60;3.30;;;;;;;;;;6186121;23;20166;-87
2022/08/01 10:10:37;;;;;;;3.28;3.08;;;;;;;;;;6186164;23;20249;-88
2022/08/01 10:13:05;;;;;;;3.20;3.00;;;;;;;;;;6186159;23;20204;-88
2022/08/01 10:15:39;;;;;;;2.90;2.65;;;;;;;;;;6185275;23;20232;-87
2022/08/01 10:18:08;;;;;;;2.72;2.53;;;;;;;;;;6184333;23;20170;-88
2022/08/01 10:20:35;;;;;;;2.83;2.50;;;;;;;;;;6185636;23;20658;-87
2022/08/01 10:23:04;;;;;;;2.50;2.30;;;;;;;;;;6183989;23;20175;-87
2022/08/01 10:25:36;;;;;;;2.70;2.50;;;;;;;;;;6186453;23;20174;-87
2022/08/01 10:28:07;;;;;;;2.58;2.38;;;;;;;;;;6186548;23;20174;-88
2022/08/01 10:31:02;;;;;;;2.55;2.35;;;;;;;;;;6187309;23;20197;-86
2022/08/01 10:33:33;;;;;;;2.72;2.53;;;;;;;;;;6093861;23;20279;-88
2022/08/01 10:36:02;;;;;;;3.85;3.08;;;;;;;;;;6095133;23;20176;-88
2022/08/01 10:38:30;;;;;;;6.07;3.40;;;;;;;;;;6171395;23;20201;-88
2022/08/01 10:41:12;;;;;;;4.18;3.30;;;;;;;;;;6188097;23;20205;-89
2022/08/01 10:49:42;;;;;;;4.70;3.88;;;;;;;;;;6042573;23;20203;-85
2022/08/01 10:52:15;;;;;;;2.80;2.55;;;;;;;;;;6179539;23;20174;-86
2022/08/01 10:54:42;;;;;;;2.90;2.55;;;;;;;;;;6185424;23;20182;-87
2022/08/01 10:57:12;;;;;;;3.67;3.38;;;;;;;;;;6185069;23;20181;-85
2022/08/01 10:59:49;;;;;;;3.50;3.30;;;;;;;;;;6186368;23;20193;-86
2022/08/01 11:02:26;;;;;;;3.13;2.83;;;;;;;;;;6185457;23;20221;-86
2022/08/01 11:04:58;;;;;;;2.95;2.75;;;;;;;;;;6185242;23;20216;-86
2022/08/01 11:07:37;;;;;;;3.00;2.80;;;;;;;;;;6185020;23;20170;-85
2022/08/01 11:10:06;;;;;;;3.22;2.60;;;;;;;;;;6186138;23;20265;-86
2022/08/01 11:12:41;;;;;;;2.80;2.60;;;;;;;;;;6185248;23;20228;-86
2022/08/01 11:15:28;;;;;;;3.08;2.38;;;;;;;;;;6185293;23;20189;-86
2022/08/01 11:17:55;;;;;;;2.90;2.70;;;;;;;;;;6185502;23;20256;-85
2022/08/01 11:26:44;;;;;;;2.65;2.45;;;;;;;;;;6153516;23;20174;-89
2022/08/01 11:34:56;;;;;;;2.90;2.65;;;;;;;;;;6185442;23;20181;-88
2022/08/01 11:37:48;;;;;;;2.78;2.60;;;;;;;;;;6183305;23;20178;-90
2022/08/01 11:40:53;;;;;;;2.53;2.42;;;;;;;;;;6184270;23;20269;-88
2022/08/01 11:43:32;;;;;;;2.90;2.70;;;;;;;;;;6184488;23;20170;-88
2022/08/01 11:49:54;;;;;;;3.33;2.47;;;;;;;;;;6092532;23;20201;-87
2022/08/01 11:52:42;;;;;;;2.63;2.50;;;;;;;;;;6186674;23;20181;-89
2022/08/01 11:55:45;;;;;;;;;;;;;;;;;;;;;
2022/08/01 12:01:27;;;;;;;3.17;2.88;;;;;;;;;;6140403;23;20213;-85
2022/08/01 12:07:18;;;;;;;3.17;2.97;;;;;;;;;;6113268;23;20205;-87
2022/08/01 12:10:07;;;;;;;2.88;2.67;;;;;;;;;;6184686;23;20269;-86
2022/08/01 12:12:46;;;;;;;2.92;2.67;;;;;;;;;;6185246;23;20244;-86
2022/08/01 12:15:52;;;;;;;3.20;2.70;;;;;;;;;;6184412;23;20193;-86
2022/08/01 12:18:27;;;;;;;2.67;2.47;;;;;;;;;;6184519;23;20177;-86
2022/08/01 12:21:12;;;;;;;2.95;2.70;;;;;;;;;;6184234;23;20198;-87
2022/08/01 13:02:43;;;;;;;2.95;2.60;;;;;;;;;;6244393;22;20248;-87
2022/08/01 13:05:43;;;;;;;2.72;2.50;;;;;;;;;;6241317;23;20169;-86
2022/08/01 13:08:38;;;;;;;3.13;2.42;;;;;;;;;;6175435;23;20747;-86
2022/08/01 13:14:49;;;;;;;2.63;2.42;;;;;;;;;;6240676;23;20188;-87
2022/08/01 13:23:14;;;;;;;2.28;2.08;;;;;;;;;;5123556;27;20600;-86
2022/08/01 13:25:59;;;;;;;1.95;1.85;;;;;;;;;;5108247;28;20208;-85
2022/08/01 13:28:38;;;;;;;2.30;2.10;;;;;;;;;;5109440;28;20207;-87
2022/08/01 13:31:13;;;;;;;2.78;2.05;;;;;;;;;;5107295;28;20302;-86
2022/08/01 13:36:55;;;;;;;2.85;2.30;;;;;;;;;;5105880;28;20209;-86
2022/08/01 13:42:34;;;;;;;2.30;2.10;;;;;;;;;;5062714;28;20374;-87
2022/08/01 13:45:11;;;;;;;2.63;1.95;;;;;;;;;;5059687;28;20227;-86
2022/08/01 13:47:43;;;;;;;2.30;2.10;;;;;;;;;;5064379;28;20240;-87
2022/08/01 15:24:46;;;;;;;4.00;2.22;;;;;;;;;;4971347;28;20582;-86
2022/08/01 15:46:01;;;;;;;2.10;1.95;;;;;;;;;;4863447;29;20294;-87
2022/08/01 18:20:21;;;;;;;1.30;1.20;;;;;;;;;;4984142;28;20278;-87
2022/08/01 18:26:33;;;;;;;1.40;1.30;;;;;;;;;;4971527;28;20203;-86
2022/08/01 19:05:39;;;;;;;1.20;1.10;;;;;;;;;;4974708;28;20224;-86
2022/08/01 20:00:25;;;;;;;1.20;1.10;;;;;;;;;;4872276;29;20305;-89
2022/08/01 20:06:29;;;;;;;1.10;1.00;;;;;;;;;;4784315;29;20239;-89
2022/08/01 20:14:30;;;;;;;1.30;1.13;;;;;;;;;;4884223;29;20296;-92
2022/08/01 20:17:13;;;;;;;;;;;;;;;;;;;;;
2022/08/01 20:20:19;;;;;;;1.17;0.90;;;;;;;;;;4953457;28;20229;-91
2022/08/01 21:02:57;;;;;;;1.38;1.10;;;;;;;;;;4718911;30;20232;-93
2022/08/01 21:05:30;;;;;;;1.20;1.10;;;;;;;;;;4733353;30;20237;-92
2022/08/01 21:08:03;;;;;;;1.05;1.02;;;;;;;;;;4732494;30;20224;-92
2022/08/01 21:10:39;;;;;;;0.90;0.90;;;;;;;;;;4732567;30;20251;-92
2022/08/01 21:13:15;;;;;;;1.25;1.10;;;;;;;;;;4745716;30;20211;-92
2022/08/01 21:16:04;;;;;;;1.02;0.98;;;;;;;;;;4766461;30;20218;-92
2022/08/01 21:18:43;;;;;;;0.90;0.90;;;;;;;;;;4770460;29;20213;-92
2022/08/01 21:25:06;;;;;;;;;;;;;;;;;;;;;
2022/08/01 21:27:58;;;;;;;1.60;0.88;;;;;;;;;;4868936;29;20317;-90
2022/08/01 21:34:02;;;;;;;1.10;1.00;;;;;;;;;;4855845;29;20231;-92
2022/08/01 22:17:12;;;;;;;1.17;1.17;;;;;;;;;;5051304;23;20231;-92
2022/08/01 22:43:20;;;;;;;1.42;1.33;;;;;;;;;;4977619;28;20338;-92
2022/08/01 22:49:01;;;;;;;1.50;1.40;;;;;;;;;;4975545;28;20220;-92
2022/08/01 22:51:46;;;;;;;1.70;1.50;;;;;;;;;;4976570;28;20208;-91
2022/08/01 22:54:22;;;;;;;1.40;1.30;;;;;;;;;;4981603;28;20207;-92
2022/08/01 22:56:56;;;;;;;1.25;1.15;;;;;;;;;;4975449;28;20211;-90
2022/08/01 22:59:46;;;;;;;1.40;1.30;;;;;;;;;;4980253;28;20226;-91
2022/08/01 23:02:25;;;;;;;1.33;1.23;;;;;;;;;;4981926;28;20204;-91
2022/08/01 23:05:02;;;;;;;1.23;1.17;;;;;;;;;;4975500;28;20199;-91
2022/08/01 23:07:37;;;;;;;1.50;1.40;;;;;;;;;;4980691;28;20200;-91
2022/08/01 23:10:17;;;;;;;1.50;1.40;;;;;;;;;;4981990;28;20227;-92
2022/08/01 23:18:53;;;;;;;1.45;1.35;;;;;;;;;;4966111;28;20266;-91
2022/08/01 23:21:30;;;;;;;1.77;1.40;;;;;;;;;;4978129;28;20286;-92
2022/08/01 23:24:16;;;;;;;1.50;1.40;;;;;;;;;;4974368;28;20219;-92
2022/08/01 23:26:50;;;;;;;1.30;1.20;;;;;;;;;;4980915;28;20204;-91
2022/08/01 23:29:31;;;;;;;1.45;1.38;;;;;;;;;;4981514;28;20220;-91
2022/08/01 23:32:03;;;;;;;1.75;1.65;;;;;;;;;;4988475;28;20203;-92
2022/08/01 23:34:30;;;;;;;1.48;1.38;;;;;;;;;;4987723;28;20200;-91
2022/08/01 23:37:06;;;;;;;1.65;1.50;;;;;;;;;;4977779;28;20204;-92
2022/08/01 23:39:34;;;;;;;1.48;1.38;;;;;;;;;;4979019;28;20299;-92
2022/08/01 23:42:06;;;;;;;1.77;1.55;;;;;;;;;;4982991;28;20587;-92
2022/08/01 23:44:38;;;;;;;1.42;1.35;;;;;;;;;;4983015;28;20207;-91
2022/08/01 23:47:05;;;;;;;1.30;1.20;;;;;;;;;;4981581;28;20208;-91
2022/08/01 23:49:42;;;;;;;1.60;1.50;;;;;;;;;;4986350;28;20278;-92
2022/08/01 23:52:19;;;;;;;1.73;1.63;;;;;;;;;;4980059;28;20207;-92
2022/08/01 23:54:50;;;;;;;1.60;1.50;;;;;;;;;;4978958;28;20218;-92
2022/08/01 23:57:20;;;;;;;1.50;1.40;;;;;;;;;;4975133;28;20210;-92
